createdAt,value
2019-04-01T00:00:42.985Z,4.10
2019-04-01T00:01:28.808Z,3.93
2019-04-01T00:02:07.123Z,4.40
2019-04-01T00:02:43.552Z,4.77
2019-04-01T00:03:21.644Z,3.90
2019-04-01T00:03:57.569Z,5.20
2019-04-01T00:04:33.837Z,3.70
2019-04-01T00:05:14.657Z,4.53
2019-04-01T00:05:51.264Z,4.67
2019-04-01T00:06:27.243Z,4.73
2019-04-01T00:07:03.845Z,3.40
2019-04-01T00:07:40.392Z,4.87
2019-04-01T00:08:17.095Z,4.67
2019-04-01T00:08:53.693Z,4.80
2019-04-01T00:09:30.629Z,5.33
2019-04-01T00:10:06.772Z,4.93
2019-04-01T00:10:45.756Z,4.83
2019-04-01T00:11:22.515Z,5.43
2019-04-01T00:11:59.804Z,5.20
2019-04-01T00:12:35.883Z,4.97
2019-04-01T00:13:12.390Z,4.23
2019-04-01T00:13:49.142Z,4.17
2019-04-01T00:14:26.389Z,4.00
2019-04-01T00:15:04.501Z,3.90
2019-04-01T00:15:41.059Z,4.80
2019-04-01T00:16:23.311Z,4.70
2019-04-01T00:17:00.109Z,4.30
2019-04-01T00:17:36.663Z,5.13
2019-04-01T00:18:13.170Z,5.10
2019-04-01T00:19:02.907Z,4.30
2019-04-01T00:19:36.218Z,4.23
2019-04-01T00:20:13.365Z,4.90
2019-04-01T00:20:50.130Z,4.47
2019-04-01T00:21:26.870Z,4.43
2019-04-01T00:22:03.615Z,4.90
2019-04-01T00:22:41.575Z,5.10
2019-04-01T00:23:18.656Z,5.20
2019-04-01T00:23:54.803Z,4.60
2019-04-01T00:24:32.300Z,4.87
2019-04-01T00:25:11.773Z,4.27
2019-04-01T00:25:48.401Z,4.43
2019-04-01T00:26:26.694Z,4.60
2019-04-01T00:27:03.367Z,4.93
2019-04-01T00:27:40.234Z,4.60
2019-04-01T00:28:16.310Z,3.97
2019-04-01T00:28:53.022Z,4.77
2019-04-01T00:29:29.197Z,4.20
2019-04-01T00:30:05.256Z,3.93
2019-04-01T00:30:42.582Z,4.47
2019-04-01T00:31:18.616Z,4.60
2019-04-01T00:31:55.094Z,4.20
2019-04-01T00:32:32.135Z,4.60
2019-04-01T00:33:09.000Z,4.80
2019-04-01T00:33:45.493Z,4.10
2019-04-01T00:34:24.195Z,4.60
2019-04-01T00:35:00.917Z,5.37
2019-04-01T00:35:36.944Z,4.17
2019-04-01T00:36:13.743Z,4.67
2019-04-01T00:36:51.344Z,3.90
2019-04-01T00:37:47.213Z,4.83
2019-04-01T00:38:23.202Z,4.23
2019-04-01T00:38:59.279Z,4.37
2019-04-01T00:39:36.874Z,4.80
2019-04-01T00:40:13.487Z,4.43
2019-04-01T00:40:50.368Z,4.47
2019-04-01T00:41:26.393Z,4.00
2019-04-01T00:42:21.446Z,3.77
2019-04-01T00:43:19.635Z,4.20
2019-04-01T00:43:57.978Z,4.33
2019-04-01T00:44:34.575Z,5.63
2019-04-01T00:45:13.842Z,4.93
2019-04-01T00:45:50.993Z,5.13
2019-04-01T00:46:27.061Z,4.60
2019-04-01T00:47:03.334Z,4.73
2019-04-01T00:47:39.843Z,6.33
2019-04-01T00:48:17.330Z,6.20
2019-04-01T00:48:53.980Z,7.33
2019-04-01T00:49:30.728Z,7.30
2019-04-01T00:50:07.473Z,8.03
2019-04-01T00:50:44.081Z,8.17
2019-04-01T00:51:20.415Z,7.77
2019-04-01T00:51:56.715Z,8.37
2019-04-01T00:52:33.289Z,6.73
2019-04-01T00:53:09.188Z,7.57
2019-04-01T00:53:46.415Z,7.70
2019-04-01T00:54:22.491Z,6.50
2019-04-01T00:54:58.580Z,5.87
2019-04-01T00:55:35.908Z,6.60
2019-04-01T00:56:14.175Z,6.60
2019-04-01T00:56:50.938Z,6.40
2019-04-01T00:57:27.283Z,5.93
2019-04-01T00:58:04.095Z,6.30
2019-04-01T00:58:42.126Z,5.07
2019-04-01T00:59:18.366Z,5.40
2019-04-01T00:59:55.087Z,4.43
2019-04-01T01:00:32.736Z,5.30
2019-04-01T01:01:09.955Z,5.20
2019-04-01T01:01:47.317Z,6.33
2019-04-01T01:02:25.359Z,4.77
2019-04-01T01:03:02.157Z,5.67
2019-04-01T01:03:38.077Z,5.37
2019-04-01T01:04:14.578Z,4.37
2019-04-01T01:04:50.599Z,5.10
2019-04-01T01:05:29.379Z,4.67
2019-04-01T01:06:10.040Z,4.40
2019-04-01T01:06:46.709Z,4.83
2019-04-01T01:07:23.069Z,4.70
2019-04-01T01:07:59.375Z,4.77
2019-04-01T01:08:37.624Z,4.43
2019-04-01T01:09:14.368Z,5.03
2019-04-01T01:09:51.916Z,4.57
2019-04-01T01:10:27.997Z,6.20
2019-04-01T01:11:04.245Z,5.60
2019-04-01T01:11:41.123Z,6.90
2019-04-01T01:12:17.959Z,5.47
2019-04-01T01:12:56.009Z,5.63
2019-04-01T01:13:32.719Z,5.63
2019-04-01T01:14:09.124Z,5.67
2019-04-01T01:14:46.953Z,6.53
2019-04-01T01:15:25.191Z,4.93
2019-04-01T01:16:01.135Z,4.73
2019-04-01T01:16:37.778Z,4.43
2019-04-01T01:17:14.058Z,4.83
2019-04-01T01:17:51.463Z,5.13
2019-04-01T01:18:27.965Z,5.90
2019-04-01T01:19:04.350Z,3.87
2019-04-01T01:19:40.889Z,5.77
2019-04-01T01:20:17.258Z,4.63
2019-04-01T01:20:53.782Z,4.80
2019-04-01T01:21:29.841Z,4.73
2019-04-01T01:22:09.732Z,5.60
2019-04-01T01:22:47.813Z,4.60
2019-04-01T01:23:26.743Z,4.07
2019-04-01T01:24:03.344Z,4.90
2019-04-01T01:24:39.707Z,4.40
2019-04-01T01:25:16.447Z,5.17
2019-04-01T01:25:52.817Z,4.77
2019-04-01T01:26:31.550Z,4.10
2019-04-01T01:27:09.617Z,3.40
2019-04-01T01:27:46.668Z,4.40
2019-04-01T01:28:23.253Z,4.03
2019-04-01T01:29:02.585Z,3.70
2019-04-01T01:29:40.048Z,5.03
2019-04-01T01:30:16.284Z,3.37
2019-04-01T01:30:52.222Z,3.70
2019-04-01T01:31:29.880Z,4.50
2019-04-01T01:32:07.462Z,3.00
2019-04-01T01:32:52.625Z,4.77
2019-04-01T01:33:29.761Z,3.77
2019-04-01T01:34:06.737Z,4.00
2019-04-01T01:35:09.202Z,4.00
2019-04-01T01:35:48.610Z,3.00
2019-04-01T01:36:24.734Z,4.07
2019-04-01T01:37:03.673Z,3.40
2019-04-01T01:37:40.637Z,4.43
2019-04-01T01:38:17.794Z,4.03
2019-04-01T01:39:06.815Z,4.37
2019-04-01T01:39:47.957Z,3.97
2019-04-01T01:40:24.198Z,3.80
2019-04-01T01:41:01.303Z,4.40
2019-04-01T01:41:41.277Z,4.10
2019-04-01T01:42:18.199Z,4.43
2019-04-01T01:42:54.324Z,4.70
2019-04-01T01:43:30.718Z,4.60
2019-04-01T01:44:11.050Z,4.50
2019-04-01T01:44:50.525Z,5.03
2019-04-01T01:45:27.434Z,4.10
2019-04-01T01:46:04.247Z,3.07
2019-04-01T01:46:59.272Z,4.87
2019-04-01T01:47:37.514Z,3.47
2019-04-01T01:48:13.896Z,4.53
2019-04-01T01:49:00.988Z,4.37
2019-04-01T01:49:42.757Z,3.87
2019-04-01T01:50:19.285Z,3.77
2019-04-01T01:50:56.447Z,4.00
2019-04-01T01:51:38.400Z,3.53
2019-04-01T01:52:16.421Z,4.10
2019-04-01T01:52:54.111Z,3.83
2019-04-01T01:53:30.641Z,3.60
2019-04-01T01:54:09.738Z,3.47
2019-04-01T01:54:51.150Z,3.30
2019-04-01T01:55:30.349Z,3.57
2019-04-01T01:56:08.385Z,3.03
2019-04-01T01:56:44.800Z,3.87
2019-04-01T01:57:23.371Z,3.80
2019-04-01T01:58:02.217Z,3.00
2019-04-01T01:58:38.963Z,3.57
2019-04-01T01:59:36.485Z,3.40
2019-04-01T02:00:16.372Z,3.57
2019-04-01T02:00:54.194Z,3.47
2019-04-01T02:01:30.484Z,3.83
2019-04-01T02:02:08.021Z,3.63
2019-04-01T02:02:44.866Z,3.60
2019-04-01T02:03:22.289Z,3.90
2019-04-01T02:04:01.071Z,3.07
2019-04-01T02:04:38.940Z,2.67
2019-04-01T02:05:16.397Z,2.83
2019-04-01T02:06:05.495Z,3.20
2019-04-01T02:06:41.652Z,3.20
2019-04-01T02:07:18.442Z,3.30
2019-04-01T02:07:55.570Z,3.13
2019-04-01T02:08:47.284Z,3.37
2019-04-01T02:09:24.836Z,4.43
2019-04-01T02:10:01.207Z,3.13
2019-04-01T02:10:39.757Z,3.63
2019-04-01T02:11:33.803Z,3.83
2019-04-01T02:12:12.018Z,3.00
2019-04-01T02:12:48.131Z,4.50
2019-04-01T02:13:28.449Z,4.00
2019-04-01T02:14:06.072Z,3.50
2019-04-01T02:14:55.068Z,4.03
2019-04-01T02:15:35.193Z,4.07
2019-04-01T02:16:17.542Z,3.87
2019-04-01T02:16:53.649Z,3.77
2019-04-01T02:17:30.333Z,3.40
2019-04-01T02:18:17.659Z,3.90
2019-04-01T02:20:16.842Z,3.70
2019-04-01T02:20:54.738Z,4.40
2019-04-01T02:21:34.396Z,4.40
2019-04-01T02:22:17.996Z,3.70
2019-04-01T02:22:54.269Z,5.27
2019-04-01T02:23:33.824Z,3.23
2019-04-01T02:24:12.319Z,4.03
2019-04-01T02:24:49.084Z,3.77
2019-04-01T02:25:28.681Z,3.60
2019-04-01T02:26:14.021Z,3.53
2019-04-01T02:26:50.425Z,4.37
2019-04-01T02:27:27.791Z,3.47
2019-04-01T02:28:04.121Z,2.97
2019-04-01T02:28:43.585Z,3.37
2019-04-01T02:29:21.264Z,3.47
2019-04-01T02:29:57.987Z,4.23
2019-04-01T02:30:36.615Z,4.60
2019-04-01T02:31:13.742Z,3.40
2019-04-01T02:31:49.652Z,4.67
2019-04-01T02:32:25.536Z,3.57
2019-04-01T02:33:02.127Z,3.60
2019-04-01T02:33:38.624Z,4.50
2019-04-01T02:34:14.683Z,4.33
2019-04-01T02:34:51.032Z,4.70
2019-04-01T02:35:27.515Z,3.83
2019-04-01T02:36:03.726Z,4.13
2019-04-01T02:36:40.451Z,4.50
2019-04-01T02:37:17.776Z,4.93
2019-04-01T02:37:54.131Z,4.40
2019-04-01T02:38:30.167Z,3.30
2019-04-01T02:39:09.707Z,4.40
2019-04-01T02:39:45.812Z,4.60
2019-04-01T02:40:23.242Z,5.10
2019-04-01T02:40:59.259Z,4.00
2019-04-01T02:41:35.862Z,3.97
2019-04-01T02:42:12.473Z,2.80
2019-04-01T02:42:53.976Z,3.07
2019-04-01T02:43:33.736Z,2.93
2019-04-01T02:44:10.460Z,3.50
2019-04-01T02:44:46.415Z,2.73
2019-04-01T02:45:23.619Z,2.90
2019-04-01T02:46:01.457Z,4.00
2019-04-01T02:46:37.458Z,3.00
2019-04-01T02:47:17.489Z,2.80
2019-04-01T02:47:54.237Z,2.77
2019-04-01T02:48:30.744Z,2.70
2019-04-01T02:49:06.747Z,2.60
2019-04-01T02:49:43.227Z,2.90
2019-04-01T02:50:19.387Z,3.10
2019-04-01T02:50:55.437Z,3.60
2019-04-01T02:51:31.575Z,2.77
2019-04-01T02:52:07.551Z,2.60
2019-04-01T02:52:51.825Z,3.00
2019-04-01T02:53:27.862Z,2.37
2019-04-01T02:54:04.881Z,2.77
2019-04-01T02:54:41.509Z,2.77
2019-04-01T02:55:17.474Z,2.30
2019-04-01T02:55:54.146Z,2.63
2019-04-01T02:56:34.209Z,3.67
2019-04-01T02:57:11.903Z,2.93
2019-04-01T02:57:48.736Z,3.23
2019-04-01T02:58:25.273Z,2.80
2019-04-01T02:59:01.798Z,2.90
2019-04-01T02:59:38.205Z,3.00
2019-04-01T03:00:14.987Z,2.20
2019-04-01T03:00:51.653Z,2.50
2019-04-01T03:01:27.723Z,3.03
2019-04-01T03:02:04.442Z,2.63
2019-04-01T03:02:41.243Z,2.40
2019-04-01T03:03:18.029Z,2.40
2019-04-01T03:03:55.922Z,4.00
2019-04-01T03:04:39.548Z,3.60
2019-04-01T03:05:16.201Z,4.23
2019-04-01T03:05:52.945Z,3.83
2019-04-01T03:06:29.015Z,5.13
2019-04-01T03:07:05.157Z,4.23
2019-04-01T03:07:42.758Z,4.40
2019-04-01T03:08:27.983Z,3.87
2019-04-01T03:09:07.714Z,3.33
2019-04-01T03:09:54.199Z,3.60
2019-04-01T03:10:35.744Z,3.70
2019-04-01T03:11:12.584Z,3.70
2019-04-01T03:11:48.534Z,2.83
2019-04-01T03:12:25.206Z,3.03
2019-04-01T03:13:01.966Z,2.93
2019-04-01T03:13:39.125Z,3.33
2019-04-01T03:14:16.887Z,3.17
2019-04-01T03:14:59.988Z,4.40
2019-04-01T03:15:36.631Z,2.77
2019-04-01T03:16:13.279Z,3.03
2019-04-01T03:16:49.579Z,2.70
2019-04-01T03:17:25.981Z,3.20
2019-04-01T03:18:03.365Z,2.40
2019-04-01T03:18:42.734Z,3.40
2019-04-01T03:19:29.050Z,2.60
2019-04-01T03:20:05.081Z,2.80
2019-04-01T03:20:41.219Z,2.10
2019-04-01T03:21:17.321Z,2.17
2019-04-01T03:21:54.155Z,2.97
2019-04-01T03:22:30.298Z,2.60
2019-04-01T03:23:06.976Z,2.70
2019-04-01T03:23:44.672Z,2.63
2019-04-01T03:24:21.065Z,2.10
2019-04-01T03:24:57.916Z,3.53
2019-04-01T03:25:34.178Z,3.20
2019-04-01T03:26:10.125Z,2.30
2019-04-01T03:26:46.958Z,2.77
2019-04-01T03:27:23.756Z,2.53
2019-04-01T03:28:03.024Z,2.60
2019-04-01T03:28:39.232Z,2.33
2019-04-01T03:29:15.861Z,1.80
2019-04-01T03:29:53.870Z,2.93
2019-04-01T03:30:31.184Z,2.33
2019-04-01T03:31:08.771Z,2.27
2019-04-01T03:31:46.516Z,2.80
2019-04-01T03:32:25.443Z,2.93
2019-04-01T03:33:06.207Z,2.67
2019-04-01T03:33:44.981Z,2.33
2019-04-01T03:34:24.190Z,2.93
2019-04-01T03:35:01.725Z,3.20
2019-04-01T03:35:39.169Z,1.97
2019-04-01T03:36:18.830Z,2.40
2019-04-01T03:36:55.797Z,2.53
2019-04-01T03:37:32.873Z,1.80
2019-04-01T03:38:10.141Z,2.30
2019-04-01T03:38:46.977Z,1.60
2019-04-01T03:39:25.679Z,2.17
2019-04-01T03:40:02.240Z,2.40
2019-04-01T03:40:38.207Z,2.57
2019-04-01T03:41:15.082Z,1.90
2019-04-01T03:41:51.025Z,3.43
2019-04-01T03:42:27.331Z,2.60
2019-04-01T03:43:03.487Z,3.10
2019-04-01T03:43:39.661Z,3.17
2019-04-01T03:44:17.364Z,2.93
2019-04-01T03:44:55.347Z,2.70
2019-04-01T03:45:31.859Z,2.80
2019-04-01T03:46:08.552Z,3.60
2019-04-01T03:46:44.509Z,3.30
2019-04-01T03:47:20.757Z,3.37
2019-04-01T03:47:59.977Z,3.50
2019-04-01T03:48:37.228Z,3.13
2019-04-01T03:49:13.208Z,4.17
2019-04-01T03:49:50.025Z,3.60
2019-04-01T03:50:26.561Z,3.77
2019-04-01T03:51:02.624Z,3.40
2019-04-01T03:51:38.898Z,3.40
2019-04-01T03:52:17.077Z,3.73
2019-04-01T03:52:54.426Z,3.00
2019-04-01T03:53:30.690Z,3.67
2019-04-01T03:54:07.784Z,2.90
2019-04-01T03:54:45.384Z,3.67
2019-04-01T03:55:21.360Z,3.37
2019-04-01T03:55:57.883Z,2.97
2019-04-01T03:56:38.723Z,3.47
2019-04-01T03:57:16.300Z,3.50
2019-04-01T03:57:52.401Z,3.30
2019-04-01T03:58:29.230Z,2.40
2019-04-01T03:59:10.270Z,3.03
2019-04-01T03:59:50.456Z,4.07
2019-04-01T04:00:26.964Z,3.47
2019-04-01T04:01:04.059Z,4.07
2019-04-01T04:01:40.343Z,2.43
2019-04-01T04:02:17.090Z,3.30
2019-04-01T04:02:55.094Z,3.30
2019-04-01T04:03:31.872Z,2.80
2019-04-01T04:04:07.867Z,2.53
2019-04-01T04:04:43.786Z,2.47
2019-04-01T04:05:20.500Z,3.40
2019-04-01T04:05:58.284Z,3.00
2019-04-01T04:06:37.418Z,3.00
2019-04-01T04:07:16.540Z,2.60
2019-04-01T04:07:58.071Z,2.97
2019-04-01T04:08:34.249Z,3.27
2019-04-01T04:09:10.297Z,3.33
2019-04-01T04:09:47.750Z,3.30
2019-04-01T04:10:24.631Z,3.43
2019-04-01T04:11:01.133Z,3.60
2019-04-01T04:11:50.749Z,3.27
2019-04-01T04:12:29.122Z,2.70
2019-04-01T04:13:05.286Z,3.30
2019-04-01T04:13:45.075Z,2.73
2019-04-01T04:14:22.773Z,2.97
2019-04-01T04:14:58.677Z,2.80
2019-04-01T04:15:34.719Z,3.60
2019-04-01T04:16:15.107Z,3.17
2019-04-01T04:16:51.855Z,3.17
2019-04-01T04:17:28.718Z,3.80
2019-04-01T04:18:05.293Z,2.87
2019-04-01T04:18:41.437Z,3.40
2019-04-01T04:19:19.505Z,3.00
2019-04-01T04:19:57.396Z,2.50
2019-04-01T04:20:33.716Z,2.60
2019-04-01T04:21:09.779Z,2.43
2019-04-01T04:21:48.655Z,3.20
2019-04-01T04:22:24.842Z,2.87
2019-04-01T04:23:00.954Z,2.50
2019-04-01T04:23:42.058Z,3.20
2019-04-01T04:24:29.672Z,2.90
2019-04-01T04:25:06.999Z,2.40
2019-04-01T04:25:45.143Z,3.60
2019-04-01T04:26:23.855Z,4.17
2019-04-01T04:27:01.481Z,3.40
2019-04-01T04:27:37.755Z,3.60
2019-04-01T04:28:15.891Z,2.60
2019-04-01T04:28:56.182Z,3.07
2019-04-01T04:29:38.999Z,3.70
2019-04-01T04:30:19.322Z,3.23
2019-04-01T04:31:02.773Z,2.83
2019-04-01T04:31:41.808Z,3.10
2019-04-01T04:32:19.027Z,2.83
2019-04-01T04:33:00.015Z,3.20
2019-04-01T04:33:36.069Z,2.50
2019-04-01T04:34:12.290Z,3.20
2019-04-01T04:34:48.319Z,2.93
2019-04-01T04:35:27.902Z,2.90
2019-04-01T04:36:03.956Z,2.87
2019-04-01T04:36:42.525Z,3.23
2019-04-01T04:37:20.707Z,3.50
2019-04-01T04:38:05.109Z,3.20
2019-04-01T04:38:42.287Z,3.60
2019-04-01T04:39:19.230Z,2.93
2019-04-01T04:39:55.899Z,3.17
2019-04-01T04:40:33.994Z,2.43
2019-04-01T04:41:11.447Z,2.57
2019-04-01T04:41:54.597Z,3.13
2019-04-01T04:42:31.528Z,2.67
2019-04-01T04:43:09.285Z,1.83
2019-04-01T04:43:47.985Z,2.83
2019-04-01T04:44:24.151Z,3.00
2019-04-01T04:45:00.437Z,2.77
2019-04-01T04:45:37.827Z,2.50
2019-04-01T04:46:13.898Z,2.53
2019-04-01T04:46:50.770Z,2.70
2019-04-01T04:47:29.425Z,2.53
2019-04-01T04:48:08.522Z,2.20
2019-04-01T04:48:44.543Z,2.40
2019-04-01T04:49:26.070Z,2.33
2019-04-01T04:50:04.570Z,2.40
2019-04-01T04:50:41.117Z,3.20
2019-04-01T04:51:20.172Z,2.47
2019-04-01T04:51:56.373Z,3.30
2019-04-01T04:52:32.463Z,2.83
2019-04-01T04:53:10.655Z,2.27
2019-04-01T04:53:47.656Z,2.33
2019-04-01T04:54:24.192Z,2.80
2019-04-01T04:55:02.632Z,2.50
2019-04-01T04:55:39.419Z,2.10
2019-04-01T04:56:18.074Z,2.10
2019-04-01T04:56:54.379Z,2.70
2019-04-01T04:57:31.208Z,3.07
2019-04-01T04:58:08.687Z,3.43
2019-04-01T04:58:46.493Z,2.07
2019-04-01T04:59:23.322Z,2.93
2019-04-01T05:00:00.826Z,2.87
2019-04-01T05:00:37.637Z,2.93
2019-04-01T05:01:16.652Z,2.67
2019-04-01T05:01:53.401Z,2.70
2019-04-01T05:02:30.483Z,2.23
2019-04-01T05:03:07.688Z,2.47
2019-04-01T05:03:46.774Z,2.47
2019-04-01T05:04:23.302Z,2.77
2019-04-01T05:05:01.497Z,3.03
2019-04-01T05:05:39.375Z,3.03
2019-04-01T05:06:18.291Z,1.90
2019-04-01T05:06:55.033Z,3.10
2019-04-01T05:07:32.027Z,2.30
2019-04-01T05:08:08.930Z,2.40
2019-04-01T05:08:45.013Z,2.03
2019-04-01T05:09:21.754Z,1.70
2019-04-01T05:09:58.602Z,2.90
2019-04-01T05:10:39.827Z,2.67
2019-04-01T05:11:15.847Z,2.90
2019-04-01T05:11:53.421Z,2.87
2019-04-01T05:12:31.746Z,2.90
2019-04-01T05:13:07.822Z,2.90
2019-04-01T05:13:45.676Z,3.00
2019-04-01T05:14:23.511Z,2.60
2019-04-01T05:15:04.057Z,2.53
2019-04-01T05:15:41.071Z,2.60
2019-04-01T05:16:17.970Z,2.47
2019-04-01T05:16:54.803Z,2.87
2019-04-01T05:17:38.134Z,3.00
2019-04-01T05:18:16.525Z,2.50
2019-04-01T05:18:54.142Z,2.97
2019-04-01T05:19:31.842Z,2.63
2019-04-01T05:20:10.395Z,3.03
2019-04-01T05:20:49.097Z,3.33
2019-04-01T05:21:28.372Z,2.73
2019-04-01T05:22:05.584Z,2.40
2019-04-01T05:22:42.556Z,2.77
2019-04-01T05:23:19.407Z,2.90
2019-04-01T05:24:00.161Z,2.60
2019-04-01T05:24:40.172Z,1.80
2019-04-01T05:25:25.238Z,2.20
2019-04-01T05:26:04.577Z,2.50
2019-04-01T05:26:44.289Z,2.93
2019-04-01T05:27:25.161Z,2.40
2019-04-01T05:28:05.985Z,2.30
2019-04-01T05:28:45.186Z,2.10
2019-04-01T05:29:22.873Z,2.80
2019-04-01T05:29:59.957Z,2.80
2019-04-01T05:30:37.943Z,2.67
2019-04-01T05:31:15.005Z,2.20
2019-04-01T05:31:52.570Z,2.80
2019-04-01T05:32:32.560Z,2.60
2019-04-01T05:33:11.915Z,2.70
2019-04-01T05:33:55.561Z,1.90
2019-04-01T05:34:36.638Z,2.50
2019-04-01T05:35:14.914Z,2.70
2019-04-01T05:35:51.560Z,2.53
2019-04-01T05:36:28.115Z,2.83
2019-04-01T05:37:08.640Z,2.50
2019-04-01T05:37:47.412Z,2.77
2019-04-01T05:38:24.259Z,1.30
2019-04-01T05:39:00.222Z,1.10
2019-04-01T05:39:37.660Z,1.40
2019-04-01T05:40:14.898Z,1.70
2019-04-01T05:40:52.171Z,1.73
2019-04-01T05:41:30.092Z,1.53
2019-04-01T05:42:06.861Z,1.60
2019-04-01T05:42:45.837Z,1.30
2019-04-01T05:43:24.140Z,2.03
2019-04-01T05:44:02.398Z,1.50
2019-04-01T05:44:38.849Z,2.20
2019-04-01T05:45:15.541Z,2.77
2019-04-01T05:46:00.479Z,2.57
2019-04-01T05:46:45.519Z,3.20
2019-04-01T05:47:25.322Z,2.77
2019-04-01T05:48:01.257Z,2.70
2019-04-01T05:48:37.480Z,2.50
2019-04-01T05:49:13.418Z,3.00
2019-04-01T05:49:50.912Z,2.30
2019-04-01T05:50:27.022Z,2.90
2019-04-01T05:51:04.600Z,5.23
2019-04-01T05:51:44.969Z,2.93
2019-04-01T05:52:21.233Z,2.80
2019-04-01T05:52:57.675Z,2.90
2019-04-01T05:53:33.767Z,3.17
2019-04-01T05:54:12.943Z,2.63
2019-04-01T05:54:49.002Z,2.20
2019-04-01T05:55:25.088Z,2.27
2019-04-01T05:56:01.146Z,1.90
2019-04-01T05:56:37.422Z,2.00
2019-04-01T05:57:15.965Z,1.87
2019-04-01T05:57:53.116Z,1.80
2019-04-01T05:58:30.166Z,1.70
2019-04-01T05:59:07.410Z,1.97
2019-04-01T05:59:43.863Z,2.97
2019-04-01T06:00:25.641Z,3.20
2019-04-01T06:01:08.868Z,1.80
2019-04-01T06:01:46.774Z,2.73
2019-04-01T06:02:25.909Z,2.40
2019-04-01T06:03:02.022Z,2.63
2019-04-01T06:03:38.707Z,1.10
2019-04-01T06:04:14.748Z,2.13
2019-04-01T06:04:50.668Z,2.40
2019-04-01T06:05:26.598Z,2.23
2019-04-01T06:06:02.838Z,2.43
2019-04-01T06:06:38.958Z,2.00
2019-04-01T06:07:23.270Z,2.30
2019-04-01T06:07:59.354Z,1.23
2019-04-01T06:08:38.517Z,1.70
2019-04-01T06:09:16.993Z,1.27
2019-04-01T06:09:53.013Z,2.47
2019-04-01T06:10:29.154Z,2.43
2019-04-01T06:11:05.383Z,2.03
2019-04-01T06:11:45.514Z,1.53
2019-04-01T06:12:25.835Z,2.43
2019-04-01T06:13:03.120Z,1.30
2019-04-01T06:13:44.510Z,1.53
2019-04-01T06:14:20.589Z,1.60
2019-04-01T06:14:57.584Z,1.60
2019-04-01T06:15:33.740Z,1.73
2019-04-01T06:16:09.799Z,1.77
2019-04-01T06:16:50.677Z,1.97
2019-04-01T06:17:26.882Z,1.40
2019-04-01T06:18:03.690Z,2.10
2019-04-01T06:18:40.907Z,1.87
2019-04-01T06:19:18.069Z,1.77
2019-04-01T06:19:56.401Z,2.40
2019-04-01T06:20:33.986Z,2.23
2019-04-01T06:21:10.101Z,2.60
2019-04-01T06:21:47.158Z,2.70
2019-04-01T06:22:25.941Z,2.70
2019-04-01T06:23:02.012Z,2.90
2019-04-01T06:23:38.139Z,2.10
2019-04-01T06:24:14.524Z,2.77
2019-04-01T06:24:50.519Z,2.20
2019-04-01T06:25:29.499Z,2.30
2019-04-01T06:26:08.268Z,1.80
2019-04-01T06:26:49.359Z,2.10
2019-04-01T06:27:32.052Z,2.40
2019-04-01T06:28:08.918Z,2.00
2019-04-01T06:28:47.841Z,1.73
2019-04-01T06:29:23.900Z,2.17
2019-04-01T06:30:10.378Z,2.60
2019-04-01T06:31:04.953Z,2.53
2019-04-01T06:31:42.301Z,2.67
2019-04-01T06:32:18.570Z,1.67
2019-04-01T06:32:54.606Z,2.60
2019-04-01T06:33:33.006Z,2.40
2019-04-01T06:34:12.272Z,1.90
2019-04-01T06:34:52.973Z,2.00
2019-04-01T06:35:47.965Z,1.80
2019-04-01T06:36:25.303Z,2.60
2019-04-01T06:37:03.499Z,1.57
2019-04-01T06:37:49.882Z,2.20
2019-04-01T06:38:39.948Z,2.20
2019-04-01T06:39:17.920Z,2.03
2019-04-01T06:39:55.342Z,2.10
2019-04-01T06:40:33.068Z,2.90
2019-04-01T06:41:15.480Z,2.50
2019-04-01T06:41:51.708Z,2.07
2019-04-01T06:42:33.166Z,2.30
2019-04-01T06:43:10.793Z,2.23
2019-04-01T06:43:59.056Z,2.33
2019-04-01T06:44:35.698Z,2.43
2019-04-01T06:45:11.789Z,2.60
2019-04-01T06:45:51.140Z,2.73
2019-04-01T06:46:34.317Z,2.00
2019-04-01T06:47:10.550Z,2.60
2019-04-01T06:47:46.642Z,2.23
2019-04-01T06:48:22.752Z,2.10
2019-04-01T06:49:02.203Z,1.90
2019-04-01T06:49:38.364Z,2.73
2019-04-01T06:50:15.736Z,2.30
2019-04-01T06:50:54.769Z,2.37
2019-04-01T06:51:30.889Z,2.00
2019-04-01T06:52:10.144Z,2.47
2019-04-01T06:52:47.688Z,2.13
2019-04-01T06:53:25.028Z,2.37
2019-04-01T06:54:02.717Z,1.90
2019-04-01T06:54:43.272Z,2.43
2019-04-01T06:55:26.141Z,1.47
2019-04-01T06:56:11.823Z,3.20
2019-04-01T06:56:57.434Z,2.27
2019-04-01T06:57:40.677Z,2.03
2019-04-01T06:58:22.922Z,1.90
2019-04-01T06:59:00.567Z,1.60
2019-04-01T06:59:38.874Z,2.10
2019-04-01T07:00:21.610Z,1.50
2019-04-01T07:01:04.236Z,1.73
2019-04-01T07:02:08.520Z,1.60
2019-04-01T07:02:48.352Z,1.30
2019-04-01T07:03:27.388Z,1.50
2019-04-01T07:04:08.220Z,1.63
2019-04-01T07:04:45.424Z,1.33
2019-04-01T07:05:22.916Z,2.40
2019-04-01T07:06:00.346Z,1.63
2019-04-01T07:06:44.693Z,1.33
2019-04-01T07:07:21.376Z,1.60
2019-04-01T07:08:00.779Z,1.80
2019-04-01T07:08:39.153Z,1.50
2019-04-01T07:09:22.650Z,1.50
2019-04-01T07:10:04.911Z,1.43
2019-04-01T07:10:44.365Z,1.80
2019-04-01T07:11:32.742Z,1.57
2019-04-01T07:12:13.533Z,2.10
2019-04-01T07:12:52.830Z,1.47
2019-04-01T07:13:34.300Z,1.50
2019-04-01T07:14:16.646Z,1.70
2019-04-01T07:14:54.347Z,1.60
2019-04-01T07:15:35.775Z,1.30
2019-04-01T07:16:23.424Z,2.10
2019-04-01T07:17:02.234Z,1.80
2019-04-01T07:17:39.152Z,1.40
2019-04-01T07:18:19.048Z,1.40
2019-04-01T07:19:00.663Z,1.40
2019-04-01T07:19:40.606Z,1.33
2019-04-01T07:20:22.493Z,1.77
2019-04-01T07:21:07.809Z,1.10
2019-04-01T07:21:49.566Z,1.60
2019-04-01T07:22:27.920Z,1.37
2019-04-01T07:23:11.872Z,1.63
2019-04-01T07:23:51.446Z,1.50
2019-04-01T07:24:28.889Z,2.17
2019-04-01T07:25:09.383Z,1.93
2019-04-01T07:25:45.431Z,1.30
2019-04-01T07:26:22.351Z,1.70
2019-04-01T07:26:59.507Z,1.90
2019-04-01T07:27:38.937Z,1.80
2019-04-01T07:28:15.150Z,1.83
2019-04-01T07:29:14.661Z,2.17
2019-04-01T07:29:50.604Z,1.60
2019-04-01T07:30:33.023Z,1.73
2019-04-01T07:31:14.045Z,1.40
2019-04-01T07:31:52.878Z,1.30
2019-04-01T07:32:31.284Z,1.87
2019-04-01T07:33:12.224Z,1.37
2019-04-01T07:33:49.853Z,1.23
2019-04-01T07:34:26.457Z,1.73
2019-04-01T07:35:06.249Z,1.70
2019-04-01T07:35:46.532Z,1.17
2019-04-01T07:36:21.575Z,1.90
2019-04-01T07:37:00.783Z,1.30
2019-04-01T07:37:45.396Z,1.60
2019-04-01T07:38:22.766Z,1.80
2019-04-01T07:39:01.249Z,1.10
2019-04-01T07:39:38.341Z,1.50
2019-04-01T07:40:14.552Z,1.77
2019-04-01T07:40:51.162Z,1.67
2019-04-01T07:41:28.937Z,1.70
2019-04-01T07:42:06.452Z,2.10
2019-04-01T07:43:09.046Z,2.43
2019-04-01T07:43:48.280Z,1.60
2019-04-01T07:44:27.973Z,1.80
2019-04-01T07:45:16.918Z,1.57
2019-04-01T07:45:53.139Z,1.73
2019-04-01T07:46:33.152Z,1.70
2019-04-01T07:47:13.707Z,1.80
2019-04-01T07:47:54.905Z,1.57
2019-04-01T07:48:53.731Z,1.77
2019-04-01T07:49:30.921Z,2.17
2019-04-01T07:50:12.047Z,1.27
2019-04-01T07:50:46.607Z,1.57
2019-04-01T07:51:24.297Z,2.13
2019-04-01T07:52:01.330Z,1.70
2019-04-01T07:52:41.835Z,1.80
2019-04-01T07:53:18.299Z,1.87
2019-04-01T07:53:54.325Z,1.50
2019-04-01T07:54:32.016Z,2.33
2019-04-01T07:55:08.266Z,1.80
2019-04-01T07:55:44.923Z,2.03
2019-04-01T07:56:20.853Z,1.93
2019-04-01T07:56:56.957Z,2.13
2019-04-01T07:59:50.255Z,1.70
2019-04-01T08:00:39.420Z,1.57
2019-04-01T08:01:52.986Z,1.77
2019-04-01T08:02:49.288Z,1.23
2019-04-01T08:03:34.483Z,1.43
2019-04-01T08:04:23.859Z,1.20
2019-04-01T08:05:14.190Z,1.90
2019-04-01T08:05:54.835Z,1.80
2019-04-01T08:06:58.497Z,2.00
2019-04-01T08:07:59.525Z,1.60
2019-04-01T08:09:44.740Z,1.63
2019-04-01T08:10:27.448Z,2.30
2019-04-01T08:13:04.176Z,2.03
2019-04-01T08:13:42.860Z,2.40
2019-04-01T08:14:20.786Z,2.20
2019-04-01T08:15:14.563Z,1.87
2019-04-01T08:16:06.558Z,1.97
2019-04-01T08:16:48.702Z,2.07
2019-04-01T08:17:31.390Z,2.70
2019-04-01T08:18:10.895Z,1.90
2019-04-01T08:18:48.748Z,2.77
2019-04-01T08:19:57.703Z,2.43
2019-04-01T08:21:17.384Z,2.20
2019-04-01T08:22:11.305Z,2.87
2019-04-01T08:23:15.070Z,2.17
2019-04-01T08:24:13.775Z,2.10
2019-04-01T08:25:32.582Z,2.30
2019-04-01T08:29:30.505Z,2.53
2019-04-01T08:31:52.818Z,2.90
2019-04-01T08:32:31.139Z,2.23
2019-04-01T08:33:40.563Z,2.70
2019-04-01T08:36:49.560Z,2.00
2019-04-01T08:38:48.829Z,2.27
2019-04-01T08:39:25.452Z,1.90
2019-04-01T08:42:12.740Z,2.70
2019-04-01T08:45:12.148Z,2.40
2019-04-01T08:46:59.044Z,2.90
2019-04-01T08:48:23.835Z,1.80
2019-04-01T08:49:30.275Z,2.17
2019-04-01T08:50:57.676Z,2.60
2019-04-01T08:53:41.909Z,1.90
2019-04-01T08:59:27.116Z,1.83
2019-04-01T09:02:00.584Z,2.07
2019-04-01T09:02:51.270Z,2.33
2019-04-01T09:04:11.871Z,2.20
2019-04-01T09:05:14.257Z,1.90
2019-04-01T09:05:55.040Z,2.40
2019-04-01T09:06:34.599Z,2.27
2019-04-01T09:07:34.357Z,2.70
2019-04-01T09:09:22.086Z,2.23
2019-04-01T09:11:55.451Z,2.63
2019-04-01T09:12:43.212Z,2.17
2019-04-01T09:13:39.527Z,2.10
2019-04-01T09:15:10.908Z,1.70
2019-04-01T09:15:47.816Z,3.13
2019-04-01T09:18:47.251Z,3.07
2019-04-01T09:26:15.207Z,2.83